sensor_id;sensor_type;location;lat;lon;timestamp;P1;durP1;ratioP1;P2;durP2;ratioP2
11113;SDS011;5610;52.154;9.198;2023-05-10T00:01:21;12.30;;;11.10;;
11113;SDS011;5610;52.154;9.198;2023-05-10T00:04:06;11.13;;;10.17;;
11113;SDS011;5610;52.154;9.198;2023-05-10T00:06:51;12.17;;;10.87;;
11113;SDS011;5610;52.154;9.198;2023-05-10T00:09:37;14.63;;;11.43;;
11113;SDS011;5610;52.154;9.198;2023-05-10T00:12:22;11.30;;;10.30;;
11113;SDS011;5610;52.154;9.198;2023-05-10T00:15:09;11.27;;;10.20;;
11113;SDS011;5610;52.154;9.198;2023-05-10T00:17:55;12.40;;;11.30;;
11113;SDS011;5610;52.154;9.198;2023-05-10T00:20:40;12.87;;;11.53;;
11113;SDS011;5610;52.154;9.198;2023-05-10T00:23:25;11.27;;;10.30;;
11113;SDS011;5610;52.154;9.198;2023-05-10T00:26:10;12.03;;;11.03;;
11113;SDS011;5610;52.154;9.198;2023-05-10T00:28:56;12.40;;;11.20;;
11113;SDS011;5610;52.154;9.198;2023-05-10T00:31:44;11.37;;;10.30;;
11113;SDS011;5610;52.154;9.198;2023-05-10T00:34:29;10.07;;;9.13;;
11113;SDS011;5610;52.154;9.198;2023-05-10T00:37:14;11.90;;;10.90;;
11113;SDS011;5610;52.154;9.198;2023-05-10T00:39:59;12.40;;;11.20;;
11113;SDS011;5610;52.154;9.198;2023-05-10T00:42:45;12.00;;;10.80;;
11113;SDS011;5610;52.154;9.198;2023-05-10T00:45:30;13.17;;;11.90;;
11113;SDS011;5610;52.154;9.198;2023-05-10T00:48:18;13.33;;;12.13;;
11113;SDS011;5610;52.154;9.198;2023-05-10T00:51:03;13.30;;;12.10;;
11113;SDS011;5610;52.154;9.198;2023-05-10T00:53:49;13.67;;;12.50;;
11113;SDS011;5610;52.154;9.198;2023-05-10T00:56:34;13.53;;;12.20;;
11113;SDS011;5610;52.154;9.198;2023-05-10T00:59:21;12.80;;;11.70;;
11113;SDS011;5610;52.154;9.198;2023-05-10T01:02:07;12.03;;;11.00;;
11113;SDS011;5610;52.154;9.198;2023-05-10T01:04:53;12.30;;;11.20;;
11113;SDS011;5610;52.154;9.198;2023-05-10T01:07:39;11.90;;;10.80;;
11113;SDS011;5610;52.154;9.198;2023-05-10T01:10:24;11.17;;;10.07;;
11113;SDS011;5610;52.154;9.198;2023-05-10T01:13:10;11.13;;;10.03;;
11113;SDS011;5610;52.154;9.198;2023-05-10T01:15:56;11.77;;;10.57;;
11113;SDS011;5610;52.154;9.198;2023-05-10T01:18:42;11.77;;;10.67;;
11113;SDS011;5610;52.154;9.198;2023-05-10T01:21:31;11.87;;;10.87;;
11113;SDS011;5610;52.154;9.198;2023-05-10T01:24:37;11.10;;;10.20;;
11113;SDS011;5610;52.154;9.198;2023-05-10T01:27:38;10.47;;;9.50;;
11113;SDS011;5610;52.154;9.198;2023-05-10T01:31:08;10.20;;;9.40;;
11113;SDS011;5610;52.154;9.198;2023-05-10T01:34:08;10.53;;;9.63;;
11113;SDS011;5610;52.154;9.198;2023-05-10T01:37:02;11.00;;;9.90;;
11113;SDS011;5610;52.154;9.198;2023-05-10T01:39:52;11.10;;;10.10;;
11113;SDS011;5610;52.154;9.198;2023-05-10T01:42:46;10.60;;;9.47;;
11113;SDS011;5610;52.154;9.198;2023-05-10T01:45:37;9.20;;;8.40;;
11113;SDS011;5610;52.154;9.198;2023-05-10T01:48:27;9.17;;;8.23;;
11113;SDS011;5610;52.154;9.198;2023-05-10T01:51:17;7.80;;;7.20;;
11113;SDS011;5610;52.154;9.198;2023-05-10T01:54:07;8.40;;;7.67;;
11113;SDS011;5610;52.154;9.198;2023-05-10T01:56:55;11.87;;;7.20;;
11113;SDS011;5610;52.154;9.198;2023-05-10T01:59:47;7.70;;;7.00;;
11113;SDS011;5610;52.154;9.198;2023-05-10T02:02:36;7.10;;;6.50;;
11113;SDS011;5610;52.154;9.198;2023-05-10T02:05:23;9.53;;;6.47;;
11113;SDS011;5610;52.154;9.198;2023-05-10T02:08:12;5.87;;;5.47;;
11113;SDS011;5610;52.154;9.198;2023-05-10T02:10:59;6.10;;;5.60;;
11113;SDS011;5610;52.154;9.198;2023-05-10T02:13:46;6.63;;;6.13;;
11113;SDS011;5610;52.154;9.198;2023-05-10T02:16:33;7.57;;;6.67;;
11113;SDS011;5610;52.154;9.198;2023-05-10T02:19:21;9.43;;;6.37;;
11113;SDS011;5610;52.154;9.198;2023-05-10T02:22:06;7.00;;;6.17;;
11113;SDS011;5610;52.154;9.198;2023-05-10T02:24:55;7.17;;;6.57;;
11113;SDS011;5610;52.154;9.198;2023-05-10T02:27:42;6.57;;;6.07;;
11113;SDS011;5610;52.154;9.198;2023-05-10T02:30:29;6.43;;;5.83;;
11113;SDS011;5610;52.154;9.198;2023-05-10T02:33:17;7.47;;;6.77;;
11113;SDS011;5610;52.154;9.198;2023-05-10T02:36:04;7.47;;;6.77;;
11113;SDS011;5610;52.154;9.198;2023-05-10T02:38:54;7.20;;;6.50;;
11113;SDS011;5610;52.154;9.198;2023-05-10T02:41:42;8.13;;;7.20;;
11113;SDS011;5610;52.154;9.198;2023-05-10T02:44:30;8.70;;;6.83;;
11113;SDS011;5610;52.154;9.198;2023-05-10T02:47:17;8.17;;;6.83;;
11113;SDS011;5610;52.154;9.198;2023-05-10T02:50:03;7.37;;;6.63;;
11113;SDS011;5610;52.154;9.198;2023-05-10T02:52:50;7.90;;;7.20;;
11113;SDS011;5610;52.154;9.198;2023-05-10T02:55:36;8.27;;;7.57;;
11113;SDS011;5610;52.154;9.198;2023-05-10T02:58:26;8.27;;;7.57;;
11113;SDS011;5610;52.154;9.198;2023-05-10T03:01:11;7.93;;;6.80;;
11113;SDS011;5610;52.154;9.198;2023-05-10T03:03:57;8.93;;;8.13;;
11113;SDS011;5610;52.154;9.198;2023-05-10T03:06:42;9.30;;;8.27;;
11113;SDS011;5610;52.154;9.198;2023-05-10T03:09:27;7.87;;;7.10;;
11113;SDS011;5610;52.154;9.198;2023-05-10T03:12:15;8.80;;;8.07;;
11113;SDS011;5610;52.154;9.198;2023-05-10T03:15:13;8.47;;;7.60;;
11113;SDS011;5610;52.154;9.198;2023-05-10T03:18:06;12.50;;;8.37;;
11113;SDS011;5610;52.154;9.198;2023-05-10T03:20:55;9.13;;;8.20;;
11113;SDS011;5610;52.154;9.198;2023-05-10T03:23:46;7.63;;;6.80;;
11113;SDS011;5610;52.154;9.198;2023-05-10T03:26:35;7.40;;;6.77;;
11113;SDS011;5610;52.154;9.198;2023-05-10T03:29:28;8.30;;;7.50;;
11113;SDS011;5610;52.154;9.198;2023-05-10T03:32:15;7.10;;;6.50;;
11113;SDS011;5610;52.154;9.198;2023-05-10T03:35:01;7.10;;;6.40;;
11113;SDS011;5610;52.154;9.198;2023-05-10T03:37:46;10.93;;;7.97;;
11113;SDS011;5610;52.154;9.198;2023-05-10T03:40:31;7.67;;;6.97;;
11113;SDS011;5610;52.154;9.198;2023-05-10T03:43:16;7.60;;;6.33;;
11113;SDS011;5610;52.154;9.198;2023-05-10T03:46:01;7.83;;;7.13;;
11113;SDS011;5610;52.154;9.198;2023-05-10T03:48:48;8.47;;;7.67;;
11113;SDS011;5610;52.154;9.198;2023-05-10T03:51:33;8.63;;;7.77;;
11113;SDS011;5610;52.154;9.198;2023-05-10T03:54:19;7.97;;;7.27;;
11113;SDS011;5610;52.154;9.198;2023-05-10T03:57:04;7.73;;;7.03;;
11113;SDS011;5610;52.154;9.198;2023-05-10T03:59:49;8.67;;;7.27;;
11113;SDS011;5610;52.154;9.198;2023-05-10T04:02:35;7.83;;;6.97;;
11113;SDS011;5610;52.154;9.198;2023-05-10T04:05:21;9.23;;;8.33;;
11113;SDS011;5610;52.154;9.198;2023-05-10T04:08:09;8.00;;;7.40;;
11113;SDS011;5610;52.154;9.198;2023-05-10T04:10:54;10.20;;;8.23;;
11113;SDS011;5610;52.154;9.198;2023-05-10T04:13:39;9.30;;;8.40;;
11113;SDS011;5610;52.154;9.198;2023-05-10T04:16:25;9.17;;;8.27;;
11113;SDS011;5610;52.154;9.198;2023-05-10T04:19:10;8.33;;;7.67;;
11113;SDS011;5610;52.154;9.198;2023-05-10T04:21:56;9.40;;;8.07;;
11113;SDS011;5610;52.154;9.198;2023-05-10T04:24:41;8.20;;;7.40;;
11113;SDS011;5610;52.154;9.198;2023-05-10T04:27:27;9.00;;;8.20;;
11113;SDS011;5610;52.154;9.198;2023-05-10T04:30:12;9.70;;;8.77;;
11113;SDS011;5610;52.154;9.198;2023-05-10T04:32:58;10.80;;;9.70;;
11113;SDS011;5610;52.154;9.198;2023-05-10T04:35:43;10.70;;;9.70;;
11113;SDS011;5610;52.154;9.198;2023-05-10T04:38:30;9.90;;;9.00;;
11113;SDS011;5610;52.154;9.198;2023-05-10T04:41:16;9.00;;;8.20;;
11113;SDS011;5610;52.154;9.198;2023-05-10T04:44:01;9.60;;;8.80;;
11113;SDS011;5610;52.154;9.198;2023-05-10T04:46:47;11.27;;;8.50;;
11113;SDS011;5610;52.154;9.198;2023-05-10T04:49:32;8.30;;;7.60;;
11113;SDS011;5610;52.154;9.198;2023-05-10T04:52:17;9.83;;;8.47;;
11113;SDS011;5610;52.154;9.198;2023-05-10T04:55:04;8.93;;;8.13;;
11113;SDS011;5610;52.154;9.198;2023-05-10T04:57:51;9.93;;;8.90;;
11113;SDS011;5610;52.154;9.198;2023-05-10T05:00:36;9.90;;;8.93;;
11113;SDS011;5610;52.154;9.198;2023-05-10T05:03:21;8.90;;;8.00;;
11113;SDS011;5610;52.154;9.198;2023-05-10T05:06:06;9.40;;;8.60;;
11113;SDS011;5610;52.154;9.198;2023-05-10T05:08:52;10.47;;;7.97;;
11113;SDS011;5610;52.154;9.198;2023-05-10T05:11:39;9.33;;;8.47;;
11113;SDS011;5610;52.154;9.198;2023-05-10T05:14:24;9.13;;;8.30;;
11113;SDS011;5610;52.154;9.198;2023-05-10T05:17:09;9.27;;;8.47;;
11113;SDS011;5610;52.154;9.198;2023-05-10T05:19:54;9.37;;;8.43;;
11113;SDS011;5610;52.154;9.198;2023-05-10T05:22:39;9.10;;;8.30;;
11113;SDS011;5610;52.154;9.198;2023-05-10T05:25:25;9.87;;;8.97;;
11113;SDS011;5610;52.154;9.198;2023-05-10T05:28:11;9.10;;;8.20;;
11113;SDS011;5610;52.154;9.198;2023-05-10T05:30:57;8.93;;;7.97;;
11113;SDS011;5610;52.154;9.198;2023-05-10T05:33:41;8.20;;;7.50;;
11113;SDS011;5610;52.154;9.198;2023-05-10T05:36:27;8.70;;;7.80;;
11113;SDS011;5610;52.154;9.198;2023-05-10T05:39:12;8.37;;;7.33;;
11113;SDS011;5610;52.154;9.198;2023-05-10T05:41:57;9.37;;;7.43;;
11113;SDS011;5610;52.154;9.198;2023-05-10T05:44:44;8.20;;;7.40;;
11113;SDS011;5610;52.154;9.198;2023-05-10T05:47:29;7.57;;;6.87;;
11113;SDS011;5610;52.154;9.198;2023-05-10T05:50:15;8.90;;;8.00;;
11113;SDS011;5610;52.154;9.198;2023-05-10T05:53:00;8.67;;;7.97;;
11113;SDS011;5610;52.154;9.198;2023-05-10T05:55:50;8.47;;;7.77;;
11113;SDS011;5610;52.154;9.198;2023-05-10T05:58:36;9.17;;;8.30;;
11113;SDS011;5610;52.154;9.198;2023-05-10T06:01:23;8.70;;;7.90;;
11113;SDS011;5610;52.154;9.198;2023-05-10T06:04:08;8.80;;;8.00;;
11113;SDS011;5610;52.154;9.198;2023-05-10T06:06:54;5.03;;;4.63;;
11113;SDS011;5610;52.154;9.198;2023-05-10T06:09:39;7.83;;;7.17;;
11113;SDS011;5610;52.154;9.198;2023-05-10T06:12:24;4.23;;;3.93;;
11113;SDS011;5610;52.154;9.198;2023-05-10T06:15:09;6.17;;;5.67;;
11113;SDS011;5610;52.154;9.198;2023-05-10T06:17:56;5.37;;;4.97;;
11113;SDS011;5610;52.154;9.198;2023-05-10T06:20:41;6.00;;;5.40;;
11113;SDS011;5610;52.154;9.198;2023-05-10T06:23:27;5.63;;;5.23;;
11113;SDS011;5610;52.154;9.198;2023-05-10T06:26:12;4.70;;;4.17;;
11113;SDS011;5610;52.154;9.198;2023-05-10T06:28:58;1.80;;;1.70;;
11113;SDS011;5610;52.154;9.198;2023-05-10T06:31:43;1.13;;;0.50;;
11113;SDS011;5610;52.154;9.198;2023-05-10T06:34:29;1.00;;;0.70;;
11113;SDS011;5610;52.154;9.198;2023-05-10T06:37:15;0.63;;;0.57;;
11113;SDS011;5610;52.154;9.198;2023-05-10T06:40:00;0.60;;;0.47;;
11113;SDS011;5610;52.154;9.198;2023-05-10T06:42:45;0.60;;;0.50;;
11113;SDS011;5610;52.154;9.198;2023-05-10T06:45:31;0.70;;;0.40;;
11113;SDS011;5610;52.154;9.198;2023-05-10T06:48:16;0.50;;;0.40;;
11113;SDS011;5610;52.154;9.198;2023-05-10T06:51:02;0.67;;;0.50;;
11113;SDS011;5610;52.154;9.198;2023-05-10T06:53:47;1.43;;;0.50;;
11113;SDS011;5610;52.154;9.198;2023-05-10T06:56:32;0.70;;;0.40;;
11113;SDS011;5610;52.154;9.198;2023-05-10T06:59:17;0.70;;;0.47;;
11113;SDS011;5610;52.154;9.198;2023-05-10T07:02:03;0.97;;;0.50;;
11113;SDS011;5610;52.154;9.198;2023-05-10T07:04:48;2.00;;;0.50;;
11113;SDS011;5610;52.154;9.198;2023-05-10T07:07:34;0.60;;;0.60;;
11113;SDS011;5610;52.154;9.198;2023-05-10T07:10:20;0.50;;;0.50;;
11113;SDS011;5610;52.154;9.198;2023-05-10T07:13:05;0.70;;;0.70;;
11113;SDS011;5610;52.154;9.198;2023-05-10T07:15:50;1.13;;;0.90;;
11113;SDS011;5610;52.154;9.198;2023-05-10T07:18:35;1.27;;;0.73;;
11113;SDS011;5610;52.154;9.198;2023-05-10T07:21:20;2.60;;;0.90;;
11113;SDS011;5610;52.154;9.198;2023-05-10T07:24:08;0.80;;;0.70;;
11113;SDS011;5610;52.154;9.198;2023-05-10T07:26:53;1.50;;;1.10;;
11113;SDS011;5610;52.154;9.198;2023-05-10T07:29:39;2.60;;;0.90;;
11113;SDS011;5610;52.154;9.198;2023-05-10T07:32:24;0.70;;;0.67;;
11113;SDS011;5610;52.154;9.198;2023-05-10T07:35:10;0.73;;;0.70;;
11113;SDS011;5610;52.154;9.198;2023-05-10T07:37:55;1.47;;;1.33;;
11113;SDS011;5610;52.154;9.198;2023-05-10T07:40:42;1.13;;;0.80;;
11113;SDS011;5610;52.154;9.198;2023-05-10T07:43:27;1.53;;;0.80;;
11113;SDS011;5610;52.154;9.198;2023-05-10T07:46:12;1.00;;;1.00;;
11113;SDS011;5610;52.154;9.198;2023-05-10T07:48:57;1.03;;;0.90;;
11113;SDS011;5610;52.154;9.198;2023-05-10T07:51:42;2.87;;;1.30;;
11113;SDS011;5610;52.154;9.198;2023-05-10T07:54:28;1.53;;;1.10;;
11113;SDS011;5610;52.154;9.198;2023-05-10T07:57:15;1.10;;;1.00;;
11113;SDS011;5610;52.154;9.198;2023-05-10T08:00:01;1.60;;;1.20;;
11113;SDS011;5610;52.154;9.198;2023-05-10T08:02:56;2.93;;;1.67;;
11113;SDS011;5610;52.154;9.198;2023-05-10T08:05:41;2.53;;;1.40;;
11113;SDS011;5610;52.154;9.198;2023-05-10T08:08:27;2.87;;;1.23;;
11113;SDS011;5610;52.154;9.198;2023-05-10T08:11:12;1.43;;;1.33;;
11113;SDS011;5610;52.154;9.198;2023-05-10T08:13:58;1.83;;;1.30;;
11113;SDS011;5610;52.154;9.198;2023-05-10T08:16:44;1.97;;;1.23;;
11113;SDS011;5610;52.154;9.198;2023-05-10T08:19:29;1.50;;;1.40;;
11113;SDS011;5610;52.154;9.198;2023-05-10T08:22:14;1.80;;;1.67;;
11113;SDS011;5610;52.154;9.198;2023-05-10T08:25:00;2.50;;;1.80;;
11113;SDS011;5610;52.154;9.198;2023-05-10T08:27:45;5.33;;;1.80;;
11113;SDS011;5610;52.154;9.198;2023-05-10T08:30:31;2.13;;;1.83;;
11113;SDS011;5610;52.154;9.198;2023-05-10T08:33:17;2.00;;;1.70;;
11113;SDS011;5610;52.154;9.198;2023-05-10T08:36:02;2.10;;;1.90;;
11113;SDS011;5610;52.154;9.198;2023-05-10T08:38:49;1.87;;;1.60;;
11113;SDS011;5610;52.154;9.198;2023-05-10T08:41:35;2.47;;;1.60;;
11113;SDS011;5610;52.154;9.198;2023-05-10T08:44:23;3.07;;;1.63;;
11113;SDS011;5610;52.154;9.198;2023-05-10T08:47:11;1.60;;;1.50;;
11113;SDS011;5610;52.154;9.198;2023-05-10T08:49:57;1.60;;;1.50;;
11113;SDS011;5610;52.154;9.198;2023-05-10T08:52:44;1.93;;;1.77;;
11113;SDS011;5610;52.154;9.198;2023-05-10T08:55:33;2.20;;;1.77;;
11113;SDS011;5610;52.154;9.198;2023-05-10T08:58:20;2.10;;;1.77;;
11113;SDS011;5610;52.154;9.198;2023-05-10T09:01:05;2.60;;;2.10;;
11113;SDS011;5610;52.154;9.198;2023-05-10T09:03:53;3.63;;;2.13;;
11113;SDS011;5610;52.154;9.198;2023-05-10T09:06:38;3.17;;;1.90;;
11113;SDS011;5610;52.154;9.198;2023-05-10T09:09:24;4.87;;;2.47;;
11113;SDS011;5610;52.154;9.198;2023-05-10T09:12:10;2.77;;;2.37;;
11113;SDS011;5610;52.154;9.198;2023-05-10T09:14:59;2.87;;;2.20;;
11113;SDS011;5610;52.154;9.198;2023-05-10T09:17:45;4.90;;;3.10;;
11113;SDS011;5610;52.154;9.198;2023-05-10T09:20:32;4.17;;;3.13;;
11113;SDS011;5610;52.154;9.198;2023-05-10T09:23:17;3.80;;;3.50;;
11113;SDS011;5610;52.154;9.198;2023-05-10T09:26:02;4.67;;;3.80;;
11113;SDS011;5610;52.154;9.198;2023-05-10T09:28:52;3.33;;;3.07;;
11113;SDS011;5610;52.154;9.198;2023-05-10T09:31:45;4.83;;;3.27;;
11113;SDS011;5610;52.154;9.198;2023-05-10T09:34:34;3.80;;;3.00;;
11113;SDS011;5610;52.154;9.198;2023-05-10T09:37:30;3.90;;;3.00;;
11113;SDS011;5610;52.154;9.198;2023-05-10T09:40:15;6.53;;;3.20;;
11113;SDS011;5610;52.154;9.198;2023-05-10T09:43:02;3.43;;;3.13;;
11113;SDS011;5610;52.154;9.198;2023-05-10T09:45:49;5.23;;;3.33;;
11113;SDS011;5610;52.154;9.198;2023-05-10T09:48:37;3.50;;;3.03;;
11113;SDS011;5610;52.154;9.198;2023-05-10T09:51:26;4.10;;;3.20;;
11113;SDS011;5610;52.154;9.198;2023-05-10T09:54:14;3.90;;;3.47;;
11113;SDS011;5610;52.154;9.198;2023-05-10T09:57:01;4.07;;;3.30;;
11113;SDS011;5610;52.154;9.198;2023-05-10T09:59:46;4.13;;;3.30;;
11113;SDS011;5610;52.154;9.198;2023-05-10T10:02:32;4.53;;;3.60;;
11113;SDS011;5610;52.154;9.198;2023-05-10T10:05:17;3.90;;;3.60;;
11113;SDS011;5610;52.154;9.198;2023-05-10T10:08:04;5.27;;;4.20;;
11113;SDS011;5610;52.154;9.198;2023-05-10T10:10:51;4.47;;;3.97;;
11113;SDS011;5610;52.154;9.198;2023-05-10T10:13:36;4.67;;;4.10;;
11113;SDS011;5610;52.154;9.198;2023-05-10T10:16:22;5.63;;;4.50;;
11113;SDS011;5610;52.154;9.198;2023-05-10T10:19:08;5.80;;;4.43;;
11113;SDS011;5610;52.154;9.198;2023-05-10T10:21:53;6.30;;;5.67;;
11113;SDS011;5610;52.154;9.198;2023-05-10T10:24:38;6.13;;;5.10;;
11113;SDS011;5610;52.154;9.198;2023-05-10T10:27:26;5.93;;;4.60;;
11113;SDS011;5610;52.154;9.198;2023-05-10T10:30:21;7.90;;;5.50;;
11113;SDS011;5610;52.154;9.198;2023-05-10T10:33:28;7.37;;;5.53;;
11113;SDS011;5610;52.154;9.198;2023-05-10T10:36:21;7.43;;;6.73;;
11113;SDS011;5610;52.154;9.198;2023-05-10T10:39:08;6.30;;;5.60;;
11113;SDS011;5610;52.154;9.198;2023-05-10T10:41:55;7.77;;;5.80;;
11113;SDS011;5610;52.154;9.198;2023-05-10T10:44:42;6.50;;;4.40;;
11113;SDS011;5610;52.154;9.198;2023-05-10T10:47:28;6.97;;;5.90;;
11113;SDS011;5610;52.154;9.198;2023-05-10T10:50:16;6.47;;;5.83;;
11113;SDS011;5610;52.154;9.198;2023-05-10T10:53:10;6.73;;;5.70;;
11113;SDS011;5610;52.154;9.198;2023-05-10T10:56:04;5.20;;;4.40;;
11113;SDS011;5610;52.154;9.198;2023-05-10T10:58:51;3.80;;;3.43;;
11113;SDS011;5610;52.154;9.198;2023-05-10T11:01:39;4.27;;;3.87;;
11113;SDS011;5610;52.154;9.198;2023-05-10T11:04:28;4.10;;;3.77;;
11113;SDS011;5610;52.154;9.198;2023-05-10T11:07:16;4.73;;;4.20;;
11113;SDS011;5610;52.154;9.198;2023-05-10T11:10:04;4.50;;;4.10;;
11113;SDS011;5610;52.154;9.198;2023-05-10T11:12:53;4.97;;;4.30;;
11113;SDS011;5610;52.154;9.198;2023-05-10T11:15:48;8.13;;;4.80;;
11113;SDS011;5610;52.154;9.198;2023-05-10T11:18:36;5.83;;;4.10;;
11113;SDS011;5610;52.154;9.198;2023-05-10T11:21:22;6.13;;;5.33;;
11113;SDS011;5610;52.154;9.198;2023-05-10T11:24:12;5.47;;;4.97;;
11113;SDS011;5610;52.154;9.198;2023-05-10T11:26:58;5.70;;;3.77;;
11113;SDS011;5610;52.154;9.198;2023-05-10T11:29:44;4.60;;;4.20;;
11113;SDS011;5610;52.154;9.198;2023-05-10T11:32:30;5.00;;;4.13;;
11113;SDS011;5610;52.154;9.198;2023-05-10T11:35:17;6.80;;;5.20;;
11113;SDS011;5610;52.154;9.198;2023-05-10T11:38:02;4.33;;;3.93;;
11113;SDS011;5610;52.154;9.198;2023-05-10T11:40:50;4.40;;;3.57;;
11113;SDS011;5610;52.154;9.198;2023-05-10T11:43:36;3.73;;;3.33;;
11113;SDS011;5610;52.154;9.198;2023-05-10T11:46:23;5.67;;;3.80;;
11113;SDS011;5610;52.154;9.198;2023-05-10T11:49:10;3.50;;;3.20;;
11113;SDS011;5610;52.154;9.198;2023-05-10T11:52:04;3.87;;;3.47;;
11113;SDS011;5610;52.154;9.198;2023-05-10T11:54:51;4.37;;;3.97;;
11113;SDS011;5610;52.154;9.198;2023-05-10T11:57:37;4.53;;;3.97;;
11113;SDS011;5610;52.154;9.198;2023-05-10T12:00:25;4.17;;;3.80;;
11113;SDS011;5610;52.154;9.198;2023-05-10T12:03:10;5.00;;;4.20;;
11113;SDS011;5610;52.154;9.198;2023-05-10T12:05:56;5.33;;;4.00;;
11113;SDS011;5610;52.154;9.198;2023-05-10T12:08:45;4.17;;;3.77;;
11113;SDS011;5610;52.154;9.198;2023-05-10T12:11:31;4.10;;;3.73;;
11113;SDS011;5610;52.154;9.198;2023-05-10T12:14:16;4.87;;;3.83;;
11113;SDS011;5610;52.154;9.198;2023-05-10T12:17:03;4.30;;;3.90;;
11113;SDS011;5610;52.154;9.198;2023-05-10T12:19:48;3.93;;;3.63;;
11113;SDS011;5610;52.154;9.198;2023-05-10T12:22:33;4.00;;;3.60;;
11113;SDS011;5610;52.154;9.198;2023-05-10T12:25:20;3.97;;;3.47;;
11113;SDS011;5610;52.154;9.198;2023-05-10T12:28:07;5.67;;;3.90;;
11113;SDS011;5610;52.154;9.198;2023-05-10T12:30:53;5.57;;;4.10;;
11113;SDS011;5610;52.154;9.198;2023-05-10T12:33:39;5.10;;;4.00;;
11113;SDS011;5610;52.154;9.198;2023-05-10T12:36:26;4.90;;;4.37;;
11113;SDS011;5610;52.154;9.198;2023-05-10T12:39:11;5.67;;;5.17;;
11113;SDS011;5610;52.154;9.198;2023-05-10T12:41:57;4.70;;;4.30;;
11113;SDS011;5610;52.154;9.198;2023-05-10T12:44:43;5.73;;;5.23;;
11113;SDS011;5610;52.154;9.198;2023-05-10T12:47:29;6.83;;;5.30;;
11113;SDS011;5610;52.154;9.198;2023-05-10T12:50:14;6.40;;;5.33;;
11113;SDS011;5610;52.154;9.198;2023-05-10T12:52:59;5.43;;;4.90;;
11113;SDS011;5610;52.154;9.198;2023-05-10T12:55:44;7.20;;;5.07;;
11113;SDS011;5610;52.154;9.198;2023-05-10T12:58:31;7.43;;;5.27;;
11113;SDS011;5610;52.154;9.198;2023-05-10T13:01:18;6.60;;;6.00;;
11113;SDS011;5610;52.154;9.198;2023-05-10T13:04:03;5.50;;;5.00;;
11113;SDS011;5610;52.154;9.198;2023-05-10T13:06:49;5.47;;;4.87;;
11113;SDS011;5610;52.154;9.198;2023-05-10T13:09:34;4.40;;;4.00;;
11113;SDS011;5610;52.154;9.198;2023-05-10T13:12:20;5.50;;;4.50;;
11113;SDS011;5610;52.154;9.198;2023-05-10T13:15:07;4.50;;;4.10;;
11113;SDS011;5610;52.154;9.198;2023-05-10T13:17:53;5.20;;;4.67;;
11113;SDS011;5610;52.154;9.198;2023-05-10T13:20:38;5.93;;;4.73;;
11113;SDS011;5610;52.154;9.198;2023-05-10T13:23:24;6.40;;;4.70;;
11113;SDS011;5610;52.154;9.198;2023-05-10T13:26:09;5.30;;;4.80;;
11113;SDS011;5610;52.154;9.198;2023-05-10T13:28:54;5.03;;;4.43;;
11113;SDS011;5610;52.154;9.198;2023-05-10T13:31:41;5.93;;;4.90;;
11113;SDS011;5610;52.154;9.198;2023-05-10T13:34:26;7.60;;;5.10;;
11113;SDS011;5610;52.154;9.198;2023-05-10T13:37:12;4.87;;;4.47;;
11113;SDS011;5610;52.154;9.198;2023-05-10T13:39:57;6.27;;;5.17;;
11113;SDS011;5610;52.154;9.198;2023-05-10T13:42:42;5.33;;;4.83;;
11113;SDS011;5610;52.154;9.198;2023-05-10T13:45:28;12.33;;;4.80;;
11113;SDS011;5610;52.154;9.198;2023-05-10T13:48:14;6.30;;;5.70;;
11113;SDS011;5610;52.154;9.198;2023-05-10T13:50:59;6.27;;;5.67;;
11113;SDS011;5610;52.154;9.198;2023-05-10T13:53:44;6.80;;;5.43;;
11113;SDS011;5610;52.154;9.198;2023-05-10T13:56:30;7.80;;;5.77;;
11113;SDS011;5610;52.154;9.198;2023-05-10T13:59:16;6.27;;;5.67;;
11113;SDS011;5610;52.154;9.198;2023-05-10T14:02:01;10.50;;;6.97;;
11113;SDS011;5610;52.154;9.198;2023-05-10T14:04:48;8.00;;;6.43;;
11113;SDS011;5610;52.154;9.198;2023-05-10T14:07:34;11.93;;;6.60;;
11113;SDS011;5610;52.154;9.198;2023-05-10T14:10:19;8.13;;;6.30;;
11113;SDS011;5610;52.154;9.198;2023-05-10T14:13:04;8.87;;;6.60;;
11113;SDS011;5610;52.154;9.198;2023-05-10T14:15:50;11.73;;;7.70;;
11113;SDS011;5610;52.154;9.198;2023-05-10T14:18:36;9.70;;;6.93;;
11113;SDS011;5610;52.154;9.198;2023-05-10T14:21:23;8.23;;;6.80;;
11113;SDS011;5610;52.154;9.198;2023-05-10T14:24:08;10.07;;;6.73;;
11113;SDS011;5610;52.154;9.198;2023-05-10T14:26:53;8.47;;;7.00;;
11113;SDS011;5610;52.154;9.198;2023-05-10T14:29:39;8.50;;;6.77;;
11113;SDS011;5610;52.154;9.198;2023-05-10T14:32:24;8.20;;;6.97;;
11113;SDS011;5610;52.154;9.198;2023-05-10T14:35:10;7.33;;;6.37;;
11113;SDS011;5610;52.154;9.198;2023-05-10T14:37:58;8.90;;;6.73;;
11113;SDS011;5610;52.154;9.198;2023-05-10T14:40:43;7.80;;;5.73;;
11113;SDS011;5610;52.154;9.198;2023-05-10T14:43:28;8.13;;;6.63;;
11113;SDS011;5610;52.154;9.198;2023-05-10T14:46:14;8.33;;;6.40;;
11113;SDS011;5610;52.154;9.198;2023-05-10T14:48:59;7.03;;;5.97;;
11113;SDS011;5610;52.154;9.198;2023-05-10T14:51:44;8.93;;;6.40;;
11113;SDS011;5610;52.154;9.198;2023-05-10T14:54:31;7.17;;;6.47;;
11113;SDS011;5610;52.154;9.198;2023-05-10T14:57:17;6.77;;;6.17;;
11113;SDS011;5610;52.154;9.198;2023-05-10T15:00:02;10.53;;;7.50;;
11113;SDS011;5610;52.154;9.198;2023-05-10T15:02:48;8.40;;;6.43;;
11113;SDS011;5610;52.154;9.198;2023-05-10T15:05:34;7.33;;;6.60;;
11113;SDS011;5610;52.154;9.198;2023-05-10T15:08:20;8.30;;;7.50;;
11113;SDS011;5610;52.154;9.198;2023-05-10T15:11:07;19.37;;;10.43;;
11113;SDS011;5610;52.154;9.198;2023-05-10T15:13:52;12.67;;;8.43;;
11113;SDS011;5610;52.154;9.198;2023-05-10T15:16:38;10.90;;;8.90;;
11113;SDS011;5610;52.154;9.198;2023-05-10T15:19:23;37.67;;;11.10;;
11113;SDS011;5610;52.154;9.198;2023-05-10T15:22:09;52.13;;;11.10;;
11113;SDS011;5610;52.154;9.198;2023-05-10T15:24:54;19.00;;;9.97;;
11113;SDS011;5610;52.154;9.198;2023-05-10T15:27:41;29.53;;;13.00;;
11113;SDS011;5610;52.154;9.198;2023-05-10T15:30:27;29.77;;;14.00;;
11113;SDS011;5610;52.154;9.198;2023-05-10T15:33:12;36.27;;;15.57;;
11113;SDS011;5610;52.154;9.198;2023-05-10T15:35:57;37.70;;;18.47;;
11113;SDS011;5610;52.154;9.198;2023-05-10T15:38:43;34.10;;;17.43;;
11113;SDS011;5610;52.154;9.198;2023-05-10T15:41:29;62.60;;;19.07;;
11113;SDS011;5610;52.154;9.198;2023-05-10T15:44:15;54.63;;;18.30;;
11113;SDS011;5610;52.154;9.198;2023-05-10T15:47:02;47.67;;;18.03;;
11113;SDS011;5610;52.154;9.198;2023-05-10T15:49:48;42.33;;;19.63;;
11113;SDS011;5610;52.154;9.198;2023-05-10T15:52:33;56.07;;;21.10;;
11113;SDS011;5610;52.154;9.198;2023-05-10T15:55:18;44.30;;;21.13;;
11113;SDS011;5610;52.154;9.198;2023-05-10T15:58:04;29.70;;;18.70;;
11113;SDS011;5610;52.154;9.198;2023-05-10T16:00:50;25.20;;;14.30;;
11113;SDS011;5610;52.154;9.198;2023-05-10T16:03:36;31.37;;;15.97;;
11113;SDS011;5610;52.154;9.198;2023-05-10T16:06:21;28.27;;;16.60;;
11113;SDS011;5610;52.154;9.198;2023-05-10T16:09:06;29.97;;;18.00;;
11113;SDS011;5610;52.154;9.198;2023-05-10T16:11:51;27.50;;;17.57;;
11113;SDS011;5610;52.154;9.198;2023-05-10T16:14:37;25.17;;;17.17;;
11113;SDS011;5610;52.154;9.198;2023-05-10T16:17:23;22.60;;;17.13;;
11113;SDS011;5610;52.154;9.198;2023-05-10T16:20:09;17.20;;;13.57;;
11113;SDS011;5610;52.154;9.198;2023-05-10T16:22:54;15.93;;;12.13;;
11113;SDS011;5610;52.154;9.198;2023-05-10T16:25:40;13.63;;;10.93;;
11113;SDS011;5610;52.154;9.198;2023-05-10T16:28:25;22.80;;;18.10;;
11113;SDS011;5610;52.154;9.198;2023-05-10T16:31:10;19.27;;;15.20;;
11113;SDS011;5610;52.154;9.198;2023-05-10T16:33:57;18.17;;;13.53;;
11113;SDS011;5610;52.154;9.198;2023-05-10T16:36:42;15.43;;;13.60;;
11113;SDS011;5610;52.154;9.198;2023-05-10T16:39:27;20.00;;;16.00;;
11113;SDS011;5610;52.154;9.198;2023-05-10T16:42:12;17.20;;;15.00;;
11113;SDS011;5610;52.154;9.198;2023-05-10T16:44:57;17.03;;;12.80;;
11113;SDS011;5610;52.154;9.198;2023-05-10T16:47:50;17.33;;;12.50;;
11113;SDS011;5610;52.154;9.198;2023-05-10T16:50:38;15.50;;;11.27;;
11113;SDS011;5610;52.154;9.198;2023-05-10T16:53:27;11.80;;;10.70;;